PGT99HZ EDDK-LTBJ
Flight info
| Callsign | PGT99HZ |
|---|---|
| Flight time | N/A |
| Altitude | 37000 |
| Route | KUMIK1R KUMIK L603 TESGA DCT ESATI DCT DETEV DCT DINKU DCT BESNI DCT LATLO DCT OBEDI DCT CEPRA DCT PODET DCT IRDIV DCT MITNO DCT VABEK UL603 OLOTA DCT RUGAS DCT PEREN DCT LMO UN127 RIKSO |
| Aircraft | A20N/M-SDE2E3FGHIRWXY/LB1 |
Departure
| Time | 2026-04-21 14:29 |
|---|---|
| Airport | Cologne Bonn Airport (EDDK) |
Arrival
| Time | N/A |
|---|---|
| Airport | Adnan Menderes International Airport (LTBJ) |
| Time | Latitude | Longitude | Altitude | Speed | Heading |
|---|---|---|---|---|---|
| 2026-04-21 14:06 | 50.88105 | 7.12093 | 230 ft | 0 kts | 216° |
| 2026-04-21 14:18 | 50.88114 | 7.12103 | 230 ft | 4 kts | 216° |
| 2026-04-21 14:18 | 50.88134 | 7.12125 | 231 ft | 4 kts | 214° |
| 2026-04-21 14:18 | 50.88156 | 7.12147 | 231 ft | 4 kts | 204° |
| 2026-04-21 14:19 | 50.88174 | 7.12154 | 232 ft | 2 kts | 152° |
| 2026-04-21 14:19 | 50.88178 | 7.12151 | 231 ft | 0 kts | 129° |
| 2026-04-21 14:21 | 50.88175 | 7.12156 | 232 ft | 3 kts | 129° |
| 2026-04-21 14:21 | 50.88133 | 7.12247 | 230 ft | 17 kts | 125° |
| 2026-04-21 14:21 | 50.88052 | 7.12416 | 230 ft | 21 kts | 133° |
| 2026-04-21 14:22 | 50.87950 | 7.12569 | 230 ft | 17 kts | 138° |
| 2026-04-21 14:22 | 50.87883 | 7.12610 | 230 ft | 16 kts | 185° |
| 2026-04-21 14:22 | 50.87746 | 7.12731 | 230 ft | 19 kts | 137° |
| 2026-04-21 14:22 | 50.87641 | 7.12884 | 230 ft | 23 kts | 137° |
| 2026-04-21 14:23 | 50.87555 | 7.13010 | 230 ft | 27 kts | 137° |
| 2026-04-21 14:23 | 50.87406 | 7.13222 | 232 ft | 31 kts | 137° |
| 2026-04-21 14:23 | 50.87244 | 7.13460 | 236 ft | 31 kts | 137° |
| 2026-04-21 14:23 | 50.87086 | 7.13690 | 241 ft | 30 kts | 138° |
| 2026-04-21 14:24 | 50.86935 | 7.13909 | 243 ft | 29 kts | 138° |
| 2026-04-21 14:24 | 50.86804 | 7.14098 | 249 ft | 15 kts | 136° |
| 2026-04-21 14:24 | 50.86722 | 7.14155 | 253 ft | 12 kts | 144° |
| 2026-04-21 14:24 | 50.86659 | 7.14245 | 257 ft | 14 kts | 137° |
| 2026-04-21 14:25 | 50.86557 | 7.14394 | 257 ft | 24 kts | 137° |
| 2026-04-21 14:25 | 50.86427 | 7.14583 | 263 ft | 25 kts | 137° |
| 2026-04-21 14:25 | 50.86296 | 7.14771 | 267 ft | 25 kts | 137° |
| 2026-04-21 14:25 | 50.86166 | 7.14958 | 271 ft | 27 kts | 137° |
| 2026-04-21 14:26 | 50.86028 | 7.15158 | 276 ft | 28 kts | 137° |
| 2026-04-21 14:26 | 50.85879 | 7.15376 | 284 ft | 28 kts | 137° |
| 2026-04-21 14:26 | 50.85739 | 7.15578 | 294 ft | 28 kts | 137° |
| 2026-04-21 14:26 | 50.85597 | 7.15783 | 298 ft | 27 kts | 137° |
| 2026-04-21 14:27 | 50.85460 | 7.15982 | 302 ft | 26 kts | 137° |
| 2026-04-21 14:27 | 50.85352 | 7.16160 | 304 ft | 19 kts | 117° |
| 2026-04-21 14:27 | 50.85344 | 7.16347 | 310 ft | 17 kts | 73° |
| 2026-04-21 14:27 | 50.85411 | 7.16484 | 313 ft | 15 kts | 33° |
| 2026-04-21 14:28 | 50.85511 | 7.16523 | 313 ft | 16 kts | 5° |
| 2026-04-21 14:28 | 50.85631 | 7.16407 | 309 ft | 36 kts | 317° |
| 2026-04-21 14:28 | 50.86004 | 7.15868 | 299 ft | 104 kts | 317° |
| 2026-04-21 14:28 | 50.86674 | 7.14896 | 260 ft | 154 kts | 317° |
| 2026-04-21 14:29 | 50.87511 | 7.13674 | 623 ft | 164 kts | 320° |
| 2026-04-21 14:29 | 50.88354 | 7.12446 | 1283 ft | 167 kts | 320° |
| 2026-04-21 14:29 | 50.89285 | 7.11269 | 1825 ft | 171 kts | 341° |
| 2026-04-21 14:29 | 50.90470 | 7.10997 | 2160 ft | 181 kts | 11° |
| 2026-04-21 14:30 | 50.91711 | 7.11765 | 2426 ft | 201 kts | 31° |
| 2026-04-21 14:30 | 50.92982 | 7.12927 | 2817 ft | 226 kts | 36° |
| 2026-04-21 14:30 | 50.94044 | 7.14873 | 3344 ft | 245 kts | 66° |
| 2026-04-21 14:30 | 50.94724 | 7.17372 | 4335 ft | 248 kts | 66° |
| 2026-04-21 14:31 | 50.95426 | 7.19874 | 5392 ft | 249 kts | 65° |
| 2026-04-21 14:31 | 50.96174 | 7.22363 | 6406 ft | 252 kts | 64° |
| 2026-04-21 14:31 | 50.96965 | 7.24896 | 7338 ft | 257 kts | 64° |
| 2026-04-21 14:31 | 50.97777 | 7.27459 | 8345 ft | 258 kts | 64° |
| 2026-04-21 14:32 | 50.98609 | 7.30081 | 9264 ft | 265 kts | 64° |
| 2026-04-21 14:32 | 50.99427 | 7.32665 | 10189 ft | 268 kts | 64° |
| 2026-04-21 14:32 | 51.00283 | 7.35375 | 10809 ft | 283 kts | 64° |
| 2026-04-21 14:32 | 51.01180 | 7.38267 | 11122 ft | 306 kts | 68° |
| 2026-04-21 14:33 | 51.01700 | 7.41654 | 11628 ft | 319 kts | 86° |
| 2026-04-21 14:33 | 51.01505 | 7.45171 | 12481 ft | 324 kts | 103° |
| 2026-04-21 14:33 | 51.00835 | 7.48668 | 13369 ft | 327 kts | 105° |
| 2026-04-21 14:33 | 51.00165 | 7.52076 | 14164 ft | 331 kts | 105° |
| 2026-04-21 14:34 | 50.99467 | 7.55632 | 14922 ft | 335 kts | 105° |
| 2026-04-21 14:34 | 50.98771 | 7.59173 | 15603 ft | 340 kts | 105° |
| 2026-04-21 14:34 | 50.98062 | 7.62781 | 16320 ft | 344 kts | 105° |
| 2026-04-21 14:34 | 50.97345 | 7.66421 | 17046 ft | 347 kts | 105° |
| 2026-04-21 14:35 | 50.96619 | 7.70096 | 17766 ft | 351 kts | 105° |
| 2026-04-21 14:35 | 50.95885 | 7.73813 | 18465 ft | 355 kts | 105° |
| 2026-04-21 14:35 | 50.95141 | 7.77568 | 19066 ft | 359 kts | 105° |
| 2026-04-21 14:35 | 50.94258 | 7.81310 | 19642 ft | 365 kts | 112° |
| 2026-04-21 14:36 | 50.93062 | 7.84881 | 20226 ft | 371 kts | 120° |
| 2026-04-21 14:36 | 50.91625 | 7.88316 | 20813 ft | 375 kts | 121° |
| 2026-04-21 14:36 | 50.90170 | 7.91776 | 21385 ft | 379 kts | 121° |
| 2026-04-21 14:36 | 50.88706 | 7.95273 | 21955 ft | 383 kts | 121° |
| 2026-04-21 14:37 | 50.87225 | 7.98816 | 22500 ft | 388 kts | 121° |
| 2026-04-21 14:37 | 50.85728 | 8.02390 | 23090 ft | 391 kts | 121° |
| 2026-04-21 14:37 | 50.84221 | 8.05981 | 23682 ft | 394 kts | 121° |
| 2026-04-21 14:37 | 50.82695 | 8.09612 | 24154 ft | 397 kts | 121° |
| 2026-04-21 14:38 | 50.81156 | 8.13268 | 24584 ft | 402 kts | 121° |
| 2026-04-21 14:38 | 50.79602 | 8.16956 | 25052 ft | 405 kts | 121° |
| 2026-04-21 14:38 | 50.78030 | 8.20681 | 25473 ft | 409 kts | 121° |
| 2026-04-21 14:38 | 50.76446 | 8.24425 | 25935 ft | 411 kts | 121° |
| 2026-04-21 14:39 | 50.74848 | 8.28198 | 26354 ft | 415 kts | 121° |
| 2026-04-21 14:39 | 50.73236 | 8.31999 | 26781 ft | 418 kts | 121° |
| 2026-04-21 14:39 | 50.71604 | 8.35820 | 27179 ft | 422 kts | 123° |
| 2026-04-21 14:39 | 50.69695 | 8.39372 | 27571 ft | 428 kts | 133° |
| 2026-04-21 14:40 | 50.67403 | 8.42400 | 27977 ft | 434 kts | 143° |
| 2026-04-21 14:40 | 50.64789 | 8.44819 | 28456 ft | 436 kts | 150° |
| 2026-04-21 14:40 | 50.62101 | 8.47065 | 28805 ft | 440 kts | 149° |
| 2026-04-21 14:40 | 50.59392 | 8.49343 | 29150 ft | 443 kts | 149° |
| 2026-04-21 14:41 | 50.56670 | 8.51638 | 29505 ft | 445 kts | 149° |
| 2026-04-21 14:41 | 50.53924 | 8.53956 | 29675 ft | 452 kts | 150° |
| 2026-04-21 14:41 | 50.51141 | 8.56300 | 30006 ft | 454 kts | 150° |
| 2026-04-21 14:41 | 50.48346 | 8.58647 | 30351 ft | 457 kts | 150° |
| 2026-04-21 14:42 | 50.45591 | 8.61154 | 30623 ft | 459 kts | 145° |
| 2026-04-21 14:42 | 50.43027 | 8.64146 | 30894 ft | 460 kts | 138° |
| 2026-04-21 14:42 | 50.40680 | 8.67565 | 31141 ft | 463 kts | 134° |
| 2026-04-21 14:42 | 50.38355 | 8.71107 | 31328 ft | 467 kts | 134° |
| 2026-04-21 14:43 | 50.36019 | 8.74651 | 31687 ft | 467 kts | 134° |
| 2026-04-21 14:43 | 50.33680 | 8.78182 | 32021 ft | 469 kts | 134° |
| 2026-04-21 14:43 | 50.31321 | 8.81729 | 32269 ft | 471 kts | 134° |
| 2026-04-21 14:43 | 50.28952 | 8.85287 | 32519 ft | 474 kts | 135° |
| 2026-04-21 14:44 | 50.26573 | 8.88853 | 32855 ft | 474 kts | 135° |
| 2026-04-21 14:44 | 50.24191 | 8.92416 | 33176 ft | 474 kts | 135° |
| 2026-04-21 14:44 | 50.21806 | 8.95976 | 33518 ft | 474 kts | 135° |
| 2026-04-21 14:44 | 50.19424 | 8.99529 | 33844 ft | 475 kts | 135° |
| 2026-04-21 14:45 | 50.17033 | 9.03088 | 34159 ft | 475 kts | 135° |
| 2026-04-21 14:45 | 50.14643 | 9.06642 | 34410 ft | 475 kts | 135° |
| 2026-04-21 14:45 | 50.12215 | 9.10246 | 34677 ft | 475 kts | 136° |
| 2026-04-21 14:45 | 50.09820 | 9.13798 | 34933 ft | 475 kts | 136° |
| 2026-04-21 14:46 | 50.07425 | 9.17343 | 35198 ft | 475 kts | 136° |
| 2026-04-21 14:46 | 50.05035 | 9.20877 | 35473 ft | 474 kts | 136° |
| 2026-04-21 14:46 | 50.02644 | 9.24413 | 35608 ft | 477 kts | 136° |
| 2026-04-21 14:46 | 50.00231 | 9.27975 | 35819 ft | 477 kts | 136° |
| 2026-04-21 14:47 | 49.97821 | 9.31528 | 36059 ft | 477 kts | 136° |
| 2026-04-21 14:47 | 49.95413 | 9.35072 | 36287 ft | 477 kts | 136° |
| 2026-04-21 14:47 | 49.93002 | 9.38616 | 36503 ft | 477 kts | 136° |
| 2026-04-21 14:47 | 49.90592 | 9.42152 | 36714 ft | 477 kts | 136° |
| 2026-04-21 14:48 | 49.88178 | 9.45690 | 36922 ft | 477 kts | 136° |
| 2026-04-21 14:48 | 49.85766 | 9.49219 | 37109 ft | 477 kts | 136° |
| 2026-04-21 14:48 | 49.83352 | 9.52746 | 37180 ft | 477 kts | 136° |
| 2026-04-21 14:49 | 49.78525 | 9.59777 | 37182 ft | 476 kts | 136° |
| 2026-04-21 14:49 | 49.73687 | 9.66796 | 37184 ft | 478 kts | 136° |
| 2026-04-21 14:50 | 49.69629 | 9.72669 | 37182 ft | 477 kts | 136° |
| 2026-04-21 14:50 | 49.63990 | 9.80806 | 37181 ft | 477 kts | 136° |
| 2026-04-21 14:51 | 49.59132 | 9.87796 | 37184 ft | 478 kts | 136° |
| 2026-04-21 14:51 | 49.54270 | 9.94772 | 37192 ft | 478 kts | 137° |
| 2026-04-21 14:52 | 49.49404 | 10.01733 | 37173 ft | 478 kts | 137° |
| 2026-04-21 14:52 | 49.44508 | 10.08716 | 37177 ft | 479 kts | 137° |
| 2026-04-21 14:53 | 49.40436 | 10.14510 | 37184 ft | 479 kts | 137° |
| 2026-04-21 14:53 | 49.35510 | 10.21500 | 37190 ft | 479 kts | 137° |
| 2026-04-21 14:54 | 49.30611 | 10.28433 | 37203 ft | 479 kts | 137° |
| 2026-04-21 14:54 | 49.25704 | 10.35358 | 37189 ft | 480 kts | 137° |
| 2026-04-21 14:55 | 49.20823 | 10.42337 | 37204 ft | 480 kts | 136° |
| 2026-04-21 14:55 | 49.16065 | 10.49478 | 37217 ft | 480 kts | 135° |
| 2026-04-21 14:56 | 49.11289 | 10.56612 | 37217 ft | 480 kts | 136° |
| 2026-04-21 14:56 | 49.06495 | 10.63709 | 37221 ft | 480 kts | 136° |
| 2026-04-21 14:57 | 49.01697 | 10.70784 | 37198 ft | 481 kts | 136° |
| 2026-04-21 14:57 | 48.96880 | 10.77867 | 37189 ft | 481 kts | 136° |
| 2026-04-21 14:58 | 48.92062 | 10.84930 | 37182 ft | 481 kts | 136° |
| 2026-04-21 14:58 | 48.87241 | 10.91979 | 37166 ft | 481 kts | 136° |
| 2026-04-21 14:59 | 48.82410 | 10.99023 | 37175 ft | 482 kts | 136° |
| 2026-04-21 14:59 | 48.77566 | 11.06066 | 37164 ft | 482 kts | 136° |
| 2026-04-21 15:00 | 48.72718 | 11.13096 | 37152 ft | 483 kts | 137° |
| 2026-04-21 15:00 | 48.67858 | 11.20121 | 37154 ft | 483 kts | 137° |
| 2026-04-21 15:01 | 48.63079 | 11.27248 | 37153 ft | 483 kts | 133° |
| 2026-04-21 15:01 | 48.58567 | 11.34785 | 37167 ft | 484 kts | 132° |
| 2026-04-21 15:02 | 48.54049 | 11.42317 | 37160 ft | 484 kts | 133° |
| 2026-04-21 15:02 | 48.49517 | 11.49827 | 37139 ft | 484 kts | 133° |
| 2026-04-21 15:03 | 48.44985 | 11.57310 | 37145 ft | 484 kts | 133° |
| 2026-04-21 15:03 | 48.40437 | 11.64798 | 37152 ft | 484 kts | 133° |
| 2026-04-21 15:04 | 48.35887 | 11.72267 | 37158 ft | 485 kts | 133° |
| 2026-04-21 15:04 | 48.31326 | 11.79734 | 37160 ft | 485 kts | 133° |
| 2026-04-21 15:05 | 48.26758 | 11.87190 | 37159 ft | 485 kts | 133° |
| 2026-04-21 15:05 | 48.19898 | 11.98349 | 37153 ft | 485 kts | 133° |
| 2026-04-21 15:06 | 48.15319 | 12.05772 | 37150 ft | 485 kts | 133° |
| 2026-04-21 15:06 | 48.10731 | 12.13187 | 37142 ft | 485 kts | 133° |
| 2026-04-21 15:07 | 48.06143 | 12.20582 | 37135 ft | 485 kts | 134° |
| 2026-04-21 15:07 | 48.01550 | 12.27963 | 37134 ft | 485 kts | 134° |
| 2026-04-21 15:08 | 47.96954 | 12.35331 | 37117 ft | 485 kts | 134° |
| 2026-04-21 15:08 | 47.92352 | 12.42687 | 37115 ft | 485 kts | 134° |
| 2026-04-21 15:09 | 47.87747 | 12.50024 | 37109 ft | 485 kts | 134° |
| 2026-04-21 15:09 | 47.83133 | 12.57357 | 37111 ft | 485 kts | 134° |
| 2026-04-21 15:10 | 47.78510 | 12.64685 | 37120 ft | 486 kts | 134° |
| 2026-04-21 15:10 | 47.73880 | 12.72002 | 37128 ft | 486 kts | 134° |
| 2026-04-21 15:11 | 47.69235 | 12.79327 | 37114 ft | 487 kts | 134° |
| 2026-04-21 15:11 | 47.64508 | 12.86532 | 37119 ft | 487 kts | 136° |
| 2026-04-21 15:12 | 47.59679 | 12.93592 | 37122 ft | 488 kts | 136° |
| 2026-04-21 15:12 | 47.54851 | 13.00677 | 37125 ft | 489 kts | 136° |
| 2026-04-21 15:13 | 47.50054 | 13.07729 | 37125 ft | 490 kts | 136° |
| 2026-04-21 15:13 | 47.45218 | 13.14826 | 37112 ft | 490 kts | 136° |
| 2026-04-21 15:14 | 47.40371 | 13.21919 | 37109 ft | 491 kts | 137° |
| 2026-04-21 15:14 | 47.35515 | 13.29003 | 37113 ft | 491 kts | 137° |
| 2026-04-21 15:15 | 47.30965 | 13.36607 | 37108 ft | 493 kts | 126° |
| 2026-04-21 15:15 | 47.26990 | 13.44743 | 37098 ft | 492 kts | 126° |
| 2026-04-21 15:16 | 47.22991 | 13.52874 | 37084 ft | 490 kts | 127° |
| 2026-04-21 15:16 | 47.18977 | 13.60991 | 37083 ft | 491 kts | 127° |
| 2026-04-21 15:17 | 47.14937 | 13.69133 | 37083 ft | 492 kts | 127° |
| 2026-04-21 15:17 | 47.10901 | 13.77244 | 37065 ft | 492 kts | 127° |
| 2026-04-21 15:18 | 47.06855 | 13.85349 | 37061 ft | 493 kts | 127° |
| 2026-04-21 15:18 | 47.02798 | 13.93453 | 37046 ft | 493 kts | 127° |
| 2026-04-21 15:19 | 46.98735 | 14.01547 | 37040 ft | 493 kts | 127° |
| 2026-04-21 15:19 | 46.94670 | 14.09619 | 37037 ft | 493 kts | 127° |
| 2026-04-21 15:20 | 46.90596 | 14.17687 | 37010 ft | 493 kts | 127° |
| 2026-04-21 15:20 | 46.86513 | 14.25749 | 37011 ft | 494 kts | 127° |
| 2026-04-21 15:21 | 46.82420 | 14.33807 | 37015 ft | 494 kts | 127° |
| 2026-04-21 15:21 | 46.78315 | 14.41865 | 37025 ft | 495 kts | 127° |
| 2026-04-21 15:22 | 46.74201 | 14.49918 | 37032 ft | 496 kts | 127° |
| 2026-04-21 15:22 | 46.70081 | 14.57960 | 37019 ft | 494 kts | 128° |
| 2026-04-21 15:23 | 46.65965 | 14.65969 | 37025 ft | 494 kts | 128° |
| 2026-04-21 15:23 | 46.61835 | 14.73983 | 37041 ft | 496 kts | 128° |
| 2026-04-21 15:24 | 46.57705 | 14.81975 | 37038 ft | 494 kts | 128° |
| 2026-04-21 15:24 | 46.53598 | 14.89899 | 37051 ft | 494 kts | 128° |
| 2026-04-21 15:25 | 46.49428 | 14.97921 | 37058 ft | 495 kts | 128° |
| 2026-04-21 15:25 | 46.45276 | 15.05887 | 37065 ft | 495 kts | 128° |
| 2026-04-21 15:26 | 46.41143 | 15.13795 | 37066 ft | 491 kts | 128° |
| 2026-04-21 15:26 | 46.37013 | 15.21681 | 37064 ft | 492 kts | 128° |
| 2026-04-21 15:27 | 46.33057 | 15.29797 | 37068 ft | 495 kts | 126° |
| 2026-04-21 15:27 | 46.29153 | 15.37980 | 37087 ft | 494 kts | 126° |
| 2026-04-21 15:28 | 46.25229 | 15.46096 | 37062 ft | 491 kts | 126° |
| 2026-04-21 15:28 | 46.21302 | 15.54159 | 37047 ft | 490 kts | 127° |
| 2026-04-21 15:29 | 46.17273 | 15.62100 | 37069 ft | 492 kts | 132° |
| 2026-04-21 15:29 | 46.12486 | 15.69109 | 37067 ft | 489 kts | 139° |
| 2026-04-21 15:30 | 46.07545 | 15.75864 | 37048 ft | 490 kts | 139° |
| 2026-04-21 15:30 | 46.02567 | 15.82679 | 37066 ft | 495 kts | 139° |
| 2026-04-21 15:31 | 45.97589 | 15.89482 | 37062 ft | 493 kts | 139° |
| 2026-04-21 15:31 | 45.92652 | 15.96208 | 37042 ft | 492 kts | 139° |
| 2026-04-21 15:32 | 45.87687 | 16.02956 | 37033 ft | 491 kts | 139° |
| 2026-04-21 15:32 | 45.82724 | 16.09681 | 37021 ft | 490 kts | 139° |
| 2026-04-21 15:33 | 45.77736 | 16.16422 | 37047 ft | 497 kts | 140° |
| 2026-04-21 15:33 | 45.72700 | 16.23213 | 37047 ft | 496 kts | 140° |
| 2026-04-21 15:34 | 45.67668 | 16.29982 | 37046 ft | 497 kts | 140° |
| 2026-04-21 15:34 | 45.62620 | 16.36753 | 37045 ft | 498 kts | 140° |
| 2026-04-21 15:35 | 45.57569 | 16.43509 | 37047 ft | 497 kts | 140° |
| 2026-04-21 15:35 | 45.53373 | 16.49110 | 37047 ft | 497 kts | 140° |
| 2026-04-21 15:36 | 45.48320 | 16.55838 | 37057 ft | 497 kts | 140° |
| 2026-04-21 15:36 | 45.43263 | 16.62555 | 37045 ft | 497 kts | 140° |
| 2026-04-21 15:37 | 45.38208 | 16.69251 | 37040 ft | 497 kts | 140° |
| 2026-04-21 15:37 | 45.33150 | 16.75934 | 37039 ft | 496 kts | 140° |
| 2026-04-21 15:38 | 45.28094 | 16.82599 | 37025 ft | 496 kts | 141° |
| 2026-04-21 15:38 | 45.23022 | 16.89266 | 37039 ft | 496 kts | 141° |
| 2026-04-21 15:39 | 45.17948 | 16.95906 | 37043 ft | 497 kts | 141° |
| 2026-04-21 15:39 | 45.12875 | 17.02550 | 37046 ft | 497 kts | 141° |
| 2026-04-21 15:40 | 45.07789 | 17.09190 | 37043 ft | 497 kts | 141° |
| 2026-04-21 15:40 | 45.03124 | 17.16448 | 37044 ft | 501 kts | 132° |
| 2026-04-21 15:41 | 44.98672 | 17.24107 | 37079 ft | 501 kts | 133° |
| 2026-04-21 15:41 | 44.94235 | 17.31697 | 37082 ft | 501 kts | 133° |
| 2026-04-21 15:42 | 44.89785 | 17.39271 | 37084 ft | 501 kts | 133° |
| 2026-04-21 15:42 | 44.85327 | 17.46834 | 37081 ft | 502 kts | 133° |
| 2026-04-21 15:43 | 44.80863 | 17.54388 | 37070 ft | 501 kts | 133° |
| 2026-04-21 15:43 | 44.76409 | 17.61904 | 37051 ft | 498 kts | 133° |
| 2026-04-21 15:44 | 44.71961 | 17.69390 | 37037 ft | 499 kts | 133° |
| 2026-04-21 15:44 | 44.67506 | 17.76868 | 37044 ft | 498 kts | 133° |
| 2026-04-21 15:45 | 44.63048 | 17.84329 | 37042 ft | 499 kts | 133° |
| 2026-04-21 15:45 | 44.58586 | 17.91780 | 37030 ft | 499 kts | 133° |
| 2026-04-21 15:46 | 44.54120 | 17.99221 | 37032 ft | 499 kts | 133° |
| 2026-04-21 15:46 | 44.49655 | 18.06639 | 37026 ft | 498 kts | 133° |
| 2026-04-21 15:47 | 44.45185 | 18.14044 | 37021 ft | 498 kts | 134° |
| 2026-04-21 15:47 | 44.40713 | 18.21434 | 37020 ft | 498 kts | 134° |
| 2026-04-21 15:48 | 44.36239 | 18.28810 | 37013 ft | 498 kts | 134° |
| 2026-04-21 15:48 | 44.31758 | 18.36176 | 37016 ft | 497 kts | 134° |
| 2026-04-21 15:49 | 44.27272 | 18.43532 | 37005 ft | 498 kts | 134° |
| 2026-04-21 15:49 | 44.22781 | 18.50875 | 37009 ft | 497 kts | 134° |
| 2026-04-21 15:50 | 44.18285 | 18.58209 | 37017 ft | 498 kts | 134° |
| 2026-04-21 15:50 | 44.13783 | 18.65536 | 37013 ft | 498 kts | 134° |
| 2026-04-21 15:51 | 44.09276 | 18.72850 | 37014 ft | 498 kts | 134° |
| 2026-04-21 15:51 | 44.04763 | 18.80157 | 37021 ft | 498 kts | 134° |
| 2026-04-21 15:52 | 44.00244 | 18.87454 | 37007 ft | 498 kts | 134° |
| 2026-04-21 15:52 | 43.95718 | 18.94740 | 37014 ft | 498 kts | 134° |
| 2026-04-21 15:53 | 43.91189 | 19.02015 | 37014 ft | 498 kts | 134° |
| 2026-04-21 15:53 | 43.86650 | 19.09289 | 37026 ft | 499 kts | 134° |
| 2026-04-21 15:54 | 43.82103 | 19.16557 | 37012 ft | 499 kts | 134° |
| 2026-04-21 15:54 | 43.77551 | 19.23822 | 37009 ft | 499 kts | 134° |
| 2026-04-21 15:55 | 43.73240 | 19.31355 | 37009 ft | 500 kts | 129° |
| 2026-04-21 15:55 | 43.69115 | 19.39104 | 37007 ft | 500 kts | 129° |
| 2026-04-21 15:56 | 43.64947 | 19.46779 | 37000 ft | 499 kts | 129° |
| 2026-04-21 15:56 | 43.60753 | 19.54408 | 36997 ft | 499 kts | 130° |
| 2026-04-21 15:57 | 43.56578 | 19.61973 | 37000 ft | 499 kts | 130° |
| 2026-04-21 15:57 | 43.52372 | 19.69574 | 37008 ft | 499 kts | 130° |
| 2026-04-21 15:58 | 43.48158 | 19.77171 | 37015 ft | 499 kts | 130° |
| 2026-04-21 15:58 | 43.43940 | 19.84757 | 37009 ft | 499 kts | 130° |
| 2026-04-21 15:59 | 43.39716 | 19.92334 | 37014 ft | 499 kts | 130° |
| 2026-04-21 15:59 | 43.35502 | 19.99875 | 36999 ft | 496 kts | 130° |
| 2026-04-21 16:00 | 43.31289 | 20.07391 | 37011 ft | 497 kts | 130° |
| 2026-04-21 16:00 | 43.27067 | 20.14907 | 37016 ft | 497 kts | 130° |
| 2026-04-21 16:01 | 43.22848 | 20.22400 | 37010 ft | 495 kts | 130° |
| 2026-04-21 16:01 | 43.18638 | 20.29855 | 37012 ft | 494 kts | 130° |
| 2026-04-21 16:02 | 43.14429 | 20.37289 | 37005 ft | 494 kts | 130° |
| 2026-04-21 16:02 | 43.10217 | 20.44712 | 36999 ft | 493 kts | 130° |
| 2026-04-21 16:03 | 43.06007 | 20.52114 | 36998 ft | 493 kts | 130° |
| 2026-04-21 16:03 | 43.01782 | 20.59516 | 37006 ft | 494 kts | 131° |
| 2026-04-21 16:04 | 42.97105 | 20.66322 | 37004 ft | 490 kts | 140° |
| 2026-04-21 16:04 | 42.92168 | 20.72748 | 37013 ft | 491 kts | 140° |
| 2026-04-21 16:05 | 42.87232 | 20.79189 | 37025 ft | 492 kts | 140° |
| 2026-04-21 16:05 | 42.82277 | 20.85641 | 37040 ft | 493 kts | 140° |
| 2026-04-21 16:06 | 42.77312 | 20.92089 | 37054 ft | 494 kts | 140° |
| 2026-04-21 16:06 | 42.72347 | 20.98524 | 37044 ft | 491 kts | 140° |
| 2026-04-21 16:07 | 42.67393 | 21.04926 | 37046 ft | 492 kts | 140° |
| 2026-04-21 16:07 | 42.62429 | 21.11329 | 37015 ft | 492 kts | 140° |
| 2026-04-21 16:08 | 42.54973 | 21.20916 | 37047 ft | 492 kts | 140° |
| 2026-04-21 16:09 | 42.50004 | 21.27287 | 37045 ft | 492 kts | 140° |
| 2026-04-21 16:09 | 42.45033 | 21.33647 | 37041 ft | 491 kts | 140° |
| 2026-04-21 16:10 | 42.40065 | 21.39988 | 37034 ft | 491 kts | 140° |
| 2026-04-21 16:10 | 42.35098 | 21.46313 | 37018 ft | 490 kts | 141° |
| 2026-04-21 16:11 | 42.30129 | 21.52626 | 37014 ft | 491 kts | 141° |
| 2026-04-21 16:11 | 42.25146 | 21.58941 | 37015 ft | 491 kts | 141° |
| 2026-04-21 16:12 | 42.21020 | 21.64205 | 37014 ft | 492 kts | 139° |
| 2026-04-21 16:12 | 42.15334 | 21.71802 | 37014 ft | 493 kts | 139° |
| 2026-04-21 16:13 | 42.10461 | 21.78302 | 36996 ft | 493 kts | 139° |
| 2026-04-21 16:13 | 42.05602 | 21.84734 | 37021 ft | 493 kts | 139° |
| 2026-04-21 16:14 | 42.00697 | 21.91206 | 37026 ft | 494 kts | 139° |
| 2026-04-21 16:14 | 41.95784 | 21.97675 | 37020 ft | 495 kts | 139° |
| 2026-04-21 16:15 | 41.90832 | 22.04179 | 37004 ft | 493 kts | 139° |
| 2026-04-21 16:15 | 41.85927 | 22.10608 | 36990 ft | 493 kts | 139° |
| 2026-04-21 16:16 | 41.81027 | 22.17014 | 36990 ft | 490 kts | 139° |
| 2026-04-21 16:16 | 41.76142 | 22.23388 | 36982 ft | 491 kts | 139° |
| 2026-04-21 16:17 | 41.72078 | 22.28679 | 36983 ft | 490 kts | 139° |